createdAt,value
2023-04-06T00:03:17.689Z,1000.63
2023-04-06T00:08:21.690Z,1000.62
2023-04-06T00:13:25.854Z,1000.66
2023-04-06T00:18:30.027Z,1000.75
2023-04-06T00:23:34.188Z,1000.72
2023-04-06T00:28:38.309Z,1000.70
2023-04-06T00:33:42.494Z,1000.65
2023-04-06T00:38:46.685Z,1000.62
2023-04-06T00:43:50.831Z,1000.62
2023-04-06T00:48:55.012Z,1000.57
2023-04-06T00:53:59.172Z,1000.53
2023-04-06T00:59:03.384Z,1000.36
2023-04-06T01:04:07.479Z,1000.39
2023-04-06T01:09:11.661Z,1000.31
2023-04-06T01:14:15.849Z,1000.19
2023-04-06T01:19:19.981Z,1000.22
2023-04-06T01:24:24.151Z,1000.16
2023-04-06T01:29:28.344Z,1000.12
2023-04-06T01:34:32.502Z,1000.02
2023-04-06T01:39:34.788Z,1000.05
2023-04-06T01:44:38.932Z,1000.04
2023-04-06T01:49:43.108Z,1000.00
2023-04-06T01:54:47.284Z,999.97
2023-04-06T01:59:51.459Z,1000.11
2023-04-06T02:04:53.727Z,1000.13
2023-04-06T02:09:57.884Z,1000.03
2023-04-06T02:15:02.068Z,1000.15
2023-04-06T02:20:06.216Z,1000.10
2023-04-06T02:25:10.429Z,1000.04
2023-04-06T02:30:14.544Z,999.96
2023-04-06T02:35:18.815Z,1000.04
2023-04-06T02:40:22.905Z,999.97
2023-04-06T02:45:27.061Z,999.97
2023-04-06T02:50:31.254Z,999.91
2023-04-06T02:55:35.368Z,999.93
2023-04-06T03:00:39.525Z,999.85
2023-04-06T03:05:43.718Z,999.87
2023-04-06T03:15:52.091Z,999.86
2023-04-06T03:20:56.239Z,999.82
2023-04-06T03:26:00.430Z,999.79
2023-04-06T03:31:02.675Z,999.90
2023-04-06T03:36:06.823Z,999.88
2023-04-06T03:41:09.097Z,1000.00
2023-04-06T03:46:13.383Z,999.98
2023-04-06T03:51:15.645Z,1000.02
2023-04-06T03:56:19.729Z,1000.00
2023-04-06T04:01:23.871Z,1000.04
2023-04-06T04:06:28.008Z,1000.06
2023-04-06T04:11:32.196Z,1000.17
2023-04-06T04:16:36.370Z,1000.17
2023-04-06T04:21:40.522Z,1000.08
2023-04-06T04:26:44.682Z,1000.04
2023-04-06T04:31:48.884Z,1000.04
2023-04-06T04:36:53.087Z,999.95
2023-04-06T04:41:57.233Z,999.96
2023-04-06T04:47:01.382Z,1000.00
2023-04-06T04:52:05.547Z,999.93
2023-04-06T04:57:09.706Z,999.84
2023-04-06T05:07:18.029Z,999.90
2023-04-06T05:12:22.201Z,999.87
2023-04-06T05:17:26.435Z,999.88
2023-04-06T05:22:30.556Z,999.92
2023-04-06T05:27:34.710Z,999.89
2023-04-06T05:32:38.898Z,999.80
2023-04-06T05:42:47.221Z,999.80
2023-04-06T05:47:49.529Z,999.74
2023-04-06T05:52:53.652Z,999.64
2023-04-06T05:57:55.927Z,999.65
2023-04-06T06:03:00.234Z,999.70
2023-04-06T06:08:04.414Z,999.75
2023-04-06T06:13:08.424Z,999.64
2023-04-06T06:18:12.635Z,999.56
2023-04-06T06:23:16.716Z,999.17
2023-04-06T06:28:20.913Z,998.60
2023-04-06T06:33:25.052Z,997.52
2023-04-06T06:38:29.246Z,996.56
2023-04-06T06:43:33.410Z,995.91
2023-04-06T06:48:37.583Z,996.24
2023-04-06T06:53:41.723Z,996.45
2023-04-06T06:58:45.880Z,996.17
2023-04-06T07:03:50.094Z,996.56
2023-04-06T07:08:54.267Z,996.54
2023-04-06T07:13:58.412Z,997.11
2023-04-06T07:19:02.559Z,997.41
2023-04-06T07:24:07.051Z,997.76
2023-04-06T07:29:10.928Z,998.07
2023-04-06T07:34:15.057Z,998.24
2023-04-06T07:39:19.231Z,998.12
2023-04-06T07:44:21.502Z,998.31
2023-04-06T07:49:25.644Z,997.88
2023-04-06T07:54:29.831Z,998.39
2023-04-06T07:59:32.132Z,998.74
2023-04-06T08:04:36.375Z,998.39
2023-04-06T08:09:40.436Z,998.88
2023-04-06T08:14:44.592Z,999.11
2023-04-06T08:19:48.731Z,999.14
2023-04-06T08:24:52.913Z,999.23
2023-04-06T08:29:57.085Z,1000.10
2023-04-06T08:35:01.214Z,1001.05
2023-04-06T08:40:05.400Z,1002.31
2023-04-06T08:45:09.576Z,1006.09
2023-04-06T08:50:13.713Z,1006.48
2023-04-06T08:55:17.850Z,1006.65
2023-04-06T09:00:22.052Z,1006.86
2023-04-06T09:05:26.204Z,1006.83
2023-04-06T09:10:30.397Z,1007.08
2023-04-06T09:15:34.526Z,1006.98
2023-04-06T09:20:38.687Z,1007.02
2023-04-06T09:25:42.901Z,1006.98
2023-04-06T09:30:47.004Z,1007.08
2023-04-06T09:35:51.212Z,1007.03
2023-04-06T09:41:01.375Z,1006.96
2023-04-06T09:45:57.631Z,1006.99
2023-04-06T09:51:01.810Z,1007.06
2023-04-06T09:56:04.029Z,1007.12
2023-04-06T10:01:08.235Z,1006.93
2023-04-06T10:06:12.352Z,1007.09
2023-04-06T10:11:16.629Z,1006.94
2023-04-06T10:16:20.720Z,1006.91
2023-04-06T10:21:24.850Z,1006.86
2023-04-06T10:26:28.979Z,1006.90
2023-04-06T10:31:33.189Z,1006.89
2023-04-06T10:36:37.328Z,1006.83
2023-04-06T10:41:41.491Z,1006.88
2023-04-06T10:46:45.610Z,1006.94
2023-04-06T10:51:49.785Z,1006.74
2023-04-06T10:56:53.923Z,1006.79
2023-04-06T11:01:58.092Z,1006.70
2023-04-06T11:07:02.317Z,1006.61
2023-04-06T11:12:06.427Z,1006.71
2023-04-06T11:17:10.769Z,1006.63
2023-04-06T11:22:14.774Z,1006.55
2023-04-06T11:27:18.926Z,1006.51
2023-04-06T11:32:23.124Z,1006.61
2023-04-06T11:37:27.380Z,1006.50
2023-04-06T11:42:29.515Z,1006.50
2023-04-06T11:52:37.830Z,1006.38
2023-04-06T11:57:42.002Z,1006.42
2023-04-06T12:02:46.222Z,1006.32
2023-04-06T12:07:50.342Z,1006.35
2023-04-06T12:12:54.464Z,1006.36
2023-04-06T12:17:58.669Z,1006.24
2023-04-06T12:23:02.783Z,1006.21
2023-04-06T12:28:06.964Z,1006.22
2023-04-06T12:33:11.173Z,1006.23
2023-04-06T12:38:15.376Z,1006.17
2023-04-06T12:43:19.408Z,1006.21
2023-04-06T12:48:23.613Z,1006.20
2023-04-06T12:53:27.758Z,1006.15
2023-04-06T12:58:31.918Z,1006.13
2023-04-06T13:03:36.092Z,1006.12
2023-04-06T13:13:44.394Z,1006.04
2023-04-06T13:18:48.571Z,1006.10
2023-04-06T13:23:52.730Z,1006.04
2023-04-06T13:28:56.869Z,1006.08
2023-04-06T13:34:01.025Z,1006.06
2023-04-06T13:39:03.320Z,1005.98
2023-04-06T13:44:07.448Z,1006.02
2023-04-06T13:49:09.721Z,1006.03
2023-04-06T13:54:13.872Z,1005.93
2023-04-06T13:59:16.226Z,1005.97
2023-04-06T14:04:20.333Z,1005.91
2023-04-06T14:09:24.461Z,1005.94
2023-04-06T14:14:28.632Z,1006.04
2023-04-06T14:19:32.907Z,1006.01
2023-04-06T14:24:36.957Z,1006.07
2023-04-06T14:29:41.149Z,1005.98
2023-04-06T14:34:45.292Z,1006.09
2023-04-06T14:39:49.434Z,1006.09
2023-04-06T14:44:53.723Z,1006.07
2023-04-06T14:49:57.782Z,1005.86
2023-04-06T14:55:01.955Z,1005.90
2023-04-06T15:00:06.139Z,1005.87
2023-04-06T15:05:10.226Z,1005.68
2023-04-06T15:10:14.435Z,1005.57
2023-04-06T15:15:18.607Z,1005.41
2023-04-06T15:20:22.746Z,1005.44
2023-04-06T15:25:26.883Z,1005.28
2023-04-06T15:30:31.395Z,1005.16
2023-04-06T15:35:35.287Z,1005.14
2023-04-06T15:40:39.403Z,1004.78
2023-04-06T15:45:41.703Z,1004.16
2023-04-06T15:50:45.808Z,1004.30
2023-04-06T15:55:48.105Z,1004.40
2023-04-06T16:00:52.244Z,1004.50
2023-04-06T16:06:08.170Z,1004.65
2023-04-06T16:11:00.567Z,1004.49
2023-04-06T16:16:04.808Z,1004.31
2023-04-06T16:21:08.881Z,1003.98
2023-04-06T16:26:13.146Z,1002.79
2023-04-06T16:31:17.264Z,999.46
2023-04-06T16:36:21.379Z,997.55
2023-04-06T16:41:25.548Z,996.33
2023-04-06T16:46:29.681Z,995.15
2023-04-06T16:51:33.882Z,994.92
2023-04-06T16:56:37.998Z,995.03
2023-04-06T17:01:42.416Z,995.13
2023-04-06T17:06:46.338Z,995.36
2023-04-06T17:11:50.500Z,995.56
2023-04-06T17:16:54.719Z,995.67
2023-04-06T17:21:58.809Z,995.95
2023-04-06T17:27:02.971Z,996.03
2023-04-06T17:32:07.185Z,996.22
2023-04-06T17:37:11.308Z,996.44
2023-04-06T17:42:13.552Z,996.38
2023-04-06T17:47:17.764Z,996.40
2023-04-06T17:52:20.041Z,996.38
2023-04-06T17:57:24.186Z,996.41
2023-04-06T18:02:28.426Z,996.31
2023-04-06T18:07:32.483Z,996.35
2023-04-06T18:12:36.670Z,996.32
2023-04-06T18:17:40.885Z,996.26
2023-04-06T18:22:44.970Z,996.17
2023-04-06T18:27:49.154Z,996.11
2023-04-06T18:32:53.316Z,996.12
2023-04-06T18:37:57.471Z,996.05
2023-04-06T18:43:01.659Z,996.05
2023-04-06T18:48:05.896Z,995.99
2023-04-06T18:53:09.949Z,995.93
2023-04-06T18:58:14.197Z,996.00
2023-04-06T19:03:17.011Z,995.88
2023-04-06T19:08:20.561Z,995.90
2023-04-06T19:13:24.705Z,995.93
2023-04-06T19:18:28.901Z,995.85
2023-04-06T19:23:33.047Z,995.85
2023-04-06T19:28:37.183Z,995.65
2023-04-06T19:33:41.431Z,995.66
2023-04-06T19:38:43.621Z,995.70
2023-04-06T19:43:47.812Z,995.67
2023-04-06T19:48:51.962Z,995.52
2023-04-06T19:53:54.263Z,995.53
2023-04-06T19:58:58.375Z,995.46
2023-04-06T20:04:02.604Z,995.43
2023-04-06T20:09:06.721Z,995.35
2023-04-06T20:14:10.875Z,995.24
2023-04-06T20:19:15.052Z,995.23
2023-04-06T20:24:19.631Z,995.14
2023-04-06T20:29:23.369Z,995.04
2023-04-06T20:34:27.524Z,995.03
2023-04-06T20:39:31.709Z,994.86
2023-04-06T20:44:35.874Z,994.73
2023-04-06T20:49:40.058Z,994.55
2023-04-06T20:54:44.244Z,994.45
2023-04-06T20:59:48.369Z,994.39
2023-04-06T21:04:52.533Z,994.34
2023-04-06T21:09:56.644Z,994.27
2023-04-06T21:15:00.842Z,994.21
2023-04-06T21:20:04.982Z,994.09
2023-04-06T21:25:09.184Z,994.05
2023-04-06T21:30:13.306Z,993.86
2023-04-06T21:35:17.481Z,993.87
2023-04-06T21:40:19.736Z,993.79
2023-04-06T21:45:23.933Z,993.69
2023-04-06T21:50:26.219Z,993.70
2023-04-06T21:55:30.333Z,993.66
2023-04-06T22:00:34.512Z,993.60
2023-04-06T22:05:38.640Z,993.43
2023-04-06T22:10:42.828Z,993.33
2023-04-06T22:15:46.978Z,993.27
2023-04-06T22:20:51.137Z,993.20
2023-04-06T22:25:55.327Z,993.11
2023-04-06T22:30:59.497Z,993.05
2023-04-06T22:36:03.701Z,992.90
2023-04-06T22:41:08.573Z,992.86
2023-04-06T22:46:11.940Z,992.84
2023-04-06T22:51:16.138Z,992.69
2023-04-06T22:56:20.287Z,992.67
2023-04-06T23:01:24.518Z,992.45
2023-04-06T23:06:28.636Z,992.44
2023-04-06T23:11:32.750Z,992.34
2023-04-06T23:16:36.985Z,992.21
2023-04-06T23:21:41.086Z,992.16
2023-04-06T23:26:45.236Z,992.07
2023-04-06T23:31:49.427Z,992.02
2023-04-06T23:36:51.727Z,991.94
2023-04-06T23:41:55.869Z,991.87
2023-04-06T23:47:00.028Z,991.80
2023-04-06T23:52:02.293Z,991.81
2023-04-06T23:57:06.472Z,991.68
